Time,TemperatureF,DewpointF,PressureIn,WindDirection,WindDirectionDegrees,WindSpeedMPH,WindSpeedGustMPH,Humidity,HourlyPrecipIn,Conditions,Clouds,dailyrainin,SoftwareType,DateUTC
2013-04-21 00:00:00,33.0,-99.9,-100.00,NW,307,104.0,-999.0,-999,-99.99,,,0.00,,2013-04-21 06:00:00,
2013-04-21 01:00:00,33.0,-99.9,-100.00,North,-999,-999.0,-999.0,-999,-99.99,,,0.00,,2013-04-21 07:00:00,
2013-04-21 01:52:00,33.0,-99.9,-100.00,North,-999,-999.0,-999.0,-999,-99.99,,,0.00,,2013-04-21 07:52:00,
2013-04-21 02:00:00,33.0,-99.9,-100.00,NW,314,106.0,-999.0,-999,-99.99,,,0.00,,2013-04-21 08:00:00,
2013-04-21 03:00:00,31.0,-99.9,-100.00,NW,307,103.0,-999.0,-999,-99.99,,,0.00,,2013-04-21 09:00:00,
2013-04-21 04:00:00,32.0,-99.9,-100.00,WNW,297,103.0,-999.0,-999,-99.99,,,0.00,,2013-04-21 10:00:00,
2013-04-21 05:00:00,33.0,-99.9,-100.00,WNW,287,98.0,-999.0,-999,-99.99,,,0.00,,2013-04-21 11:00:00,
2013-04-21 06:00:00,32.0,-99.9,-100.00,WNW,282,95.0,-999.0,-999,-99.99,,,-99.99,,2013-04-21 12:00:00,
2013-04-21 07:00:00,33.0,-99.9,-100.00,West,274,95.0,-999.0,-999,-99.99,,,0.00,,2013-04-21 13:00:00,
2013-04-21 08:00:00,37.0,-99.9,-100.00,WSW,247,88.0,-999.0,-999,-99.99,,,0.00,,2013-04-21 14:00:00,
2013-04-21 09:00:00,38.0,-99.9,-100.00,SW,222,78.0,-999.0,-999,-99.99,,,0.00,,2013-04-21 15:00:00,
2013-04-21 10:00:00,40.0,-99.9,-100.00,SSW,201,73.0,-999.0,-999,-99.99,,,0.00,,2013-04-21 16:00:00,
2013-04-21 11:00:00,42.0,-99.9,-100.00,South,184,68.0,-999.0,-999,-99.99,,,-99.99,,2013-04-21 17:00:00,
2013-04-21 12:00:00,42.0,-99.9,-100.00,South,179,63.0,-999.0,-999,-99.99,,,0.00,,2013-04-21 18:00:00,
2013-04-21 13:00:00,43.0,-99.9,-100.00,South,170,63.0,-999.0,-999,-99.99,,,0.00,,2013-04-21 19:00:00,
2013-04-21 14:00:00,46.0,-99.9,-100.00,SE,138,51.0,-999.0,-999,-99.99,,,0.00,,2013-04-21 20:00:00,
2013-04-21 15:00:00,44.0,-99.9,-100.00,SE,133,54.0,-999.0,-999,-99.99,,,0.00,,2013-04-21 21:00:00,
2013-04-21 16:00:00,43.0,-99.9,-100.00,SE,132,49.0,-999.0,-999,-99.99,,,0.00,,2013-04-21 22:00:00,
2013-04-21 17:00:00,41.0,-99.9,-100.00,SSE,159,62.0,-999.0,-999,-99.99,,,0.00,,2013-04-21 23:00:00,
2013-04-21 17:52:00,41.0,-99.9,-100.00,SSE,159,62.0,-999.0,-999,-99.99,,,0.00,,2013-04-21 23:52:00,
2013-04-21 18:00:00,38.0,-99.9,-100.00,WSW,250,96.0,-999.0,-999,-99.99,,,0.00,,2013-04-22 00:00:00,
2013-04-21 19:00:00,41.0,-99.9,-100.00,North,-999,-999.0,-999.0,-999,-99.99,,,0.00,,2013-04-22 01:00:00,
2013-04-21 20:00:00,39.0,-99.9,-100.00,South,170,60.0,-999.0,-999,-99.99,,,0.00,,2013-04-22 02:00:00,
2013-04-21 21:00:00,39.0,-99.9,-100.00,South,171,59.0,-999.0,-999,-99.99,,,0.00,,2013-04-22 03:00:00,
2013-04-21 22:00:00,38.0,-99.9,-100.00,South,174,60.0,-999.0,-999,-99.99,,,0.00,,2013-04-22 04:00:00,
2013-04-21 23:00:00,39.0,-99.9,-100.00,South,179,64.0,-999.0,-999,-99.99,,,0.00,,2013-04-22 05:00:00,